Time;durP1;ratioP1;P1;durP2;ratioP2;P2;SDS_P1;SDS_P2;PMS_P1;PMS_P2;Temp;Humidity;BMP_temperature;BMP_pressure;BME280_temperature;BME280_humidity;BME280_pressure;Samples;Min_cycle;Max_cycle;Signal;HPM_P1;HPM_P2
2022/01/05 00:01:03;;;;;;;;;;;6.40;93.10;;;;;;4965490;28;19951;-89
2022/01/05 00:03:29;;;;;;;;;;;6.30;93.10;;;;;;4975411;28;20471;-89
2022/01/05 00:05:56;;;;;;;;;;;6.30;93.10;;;;;;4966796;28;20216;-89
2022/01/05 00:08:25;;;;;;;;;;;6.30;93.00;;;;;;4975079;28;20393;-89
2022/01/05 00:10:52;;;;;;;;;;;6.20;93.00;;;;;;4967185;28;19920;-89
2022/01/05 00:13:19;;;;;;;;;;;6.20;93.00;;;;;;4975314;28;19914;-88
2022/01/05 00:15:46;;;;;;;;;;;6.10;93.00;;;;;;4954969;28;19914;-88
2022/01/05 00:18:13;;;;;;;;;;;6.10;93.00;;;;;;4972215;28;19924;-89
2022/01/05 00:20:41;;;;;;;;;;;6.10;92.90;;;;;;4978535;28;19914;-88
2022/01/05 00:23:08;;;;;;;;;;;6.00;92.90;;;;;;4975445;28;20340;-89
2022/01/05 00:25:35;;;;;;;;;;;6.00;92.90;;;;;;4994146;28;19921;-88
2022/01/05 00:28:02;;;;;;;;;;;6.00;92.90;;;;;;4965191;28;20388;-88
2022/01/05 00:30:29;;;;;;;;;;;5.90;92.90;;;;;;4961226;28;19914;-88
2022/01/05 00:32:56;;;;;;;;;;;5.90;92.90;;;;;;4968633;28;19947;-88
2022/01/05 00:35:23;;;;;;;;;;;5.80;92.80;;;;;;4966589;28;19922;-88
2022/01/05 00:37:49;;;;;;;;;;;5.80;92.80;;;;;;4968162;28;20183;-88
2022/01/05 00:40:16;;;;;;;;;;;5.80;92.80;;;;;;4975949;28;20358;-88
2022/01/05 00:42:43;;;;;;;;;;;5.70;92.80;;;;;;4957333;28;19914;-88
2022/01/05 00:45:10;;;;;;;;;;;5.70;92.90;;;;;;4970804;28;20278;-88
2022/01/05 00:47:37;;;;;;;;;;;5.70;92.80;;;;;;4977608;28;19926;-88
2022/01/05 00:50:04;;;;;;;;;;;5.60;92.80;;;;;;4963470;28;19921;-88
2022/01/05 00:52:31;;;;;;;;;;;5.60;92.80;;;;;;4973008;28;19913;-88
2022/01/05 00:54:58;;;;;;;;;;;5.60;92.80;;;;;;4967642;28;19914;-88
2022/01/05 00:57:25;;;;;;;;;;;5.50;92.80;;;;;;4969339;28;19913;-88
2022/01/05 00:59:51;;;;;;;;;;;5.50;92.80;;;;;;4972141;28;19914;-88
2022/01/05 01:02:18;;;;;;;;;;;5.40;92.80;;;;;;4969665;28;19914;-88
2022/01/05 01:04:45;;;;;;;;;;;5.40;92.80;;;;;;4982912;28;20329;-89
2022/01/05 01:07:12;;;;;;;;;;;5.40;93.00;;;;;;4970065;28;19940;-88
2022/01/05 01:09:39;;;;;;;;;;;5.40;92.90;;;;;;4973435;28;19924;-88
2022/01/05 01:12:06;;;;;;;;;;;5.40;92.80;;;;;;4974296;28;19913;-88
2022/01/05 01:14:33;;;;;;;;;;;5.30;92.80;;;;;;4971724;28;19932;-88
2022/01/05 01:17:00;;;;;;;;;;;5.30;93.10;;;;;;4962528;28;23334;-88
2022/01/05 01:19:27;;;;;;;;;;;5.20;92.70;;;;;;4971637;28;19920;-88
2022/01/05 01:21:55;;;;;;;;;;;5.20;92.80;;;;;;4962657;28;19921;-89
2022/01/05 01:24:22;;;;;;;;;;;5.20;92.80;;;;;;4981964;28;19909;-88
2022/01/05 01:26:49;;;;;;;;;;;5.10;92.80;;;;;;4985969;28;20471;-88
2022/01/05 01:29:15;;;;;;;;;;;5.10;92.80;;;;;;4967992;28;19920;-87
2022/01/05 01:31:42;;;;;;;;;;;5.10;92.80;;;;;;4980894;28;19919;-87
2022/01/05 01:34:09;;;;;;;;;;;5.10;92.80;;;;;;4993012;28;19918;-88
2022/01/05 01:36:36;;;;;;;;;;;5.00;92.80;;;;;;4995177;28;19917;-88
2022/01/05 01:39:04;;;;;;;;;;;5.00;92.90;;;;;;4988988;28;19947;-88
2022/01/05 01:41:31;;;;;;;;;;;5.00;92.90;;;;;;4987059;28;20460;-88
2022/01/05 01:43:58;;;;;;;;;;;5.00;92.90;;;;;;4981725;28;19920;-88
2022/01/05 01:46:25;;;;;;;;;;;5.00;93.00;;;;;;4987723;28;19921;-87
2022/01/05 01:48:52;;;;;;;;;;;5.00;93.10;;;;;;4987122;28;20190;-87
2022/01/05 01:51:19;;;;;;;;;;;5.00;93.20;;;;;;4985226;28;19922;-87
2022/01/05 01:53:46;;;;;;;;;;;5.10;93.30;;;;;;4984758;28;20245;-87
2022/01/05 01:56:14;;;;;;;;;;;5.10;93.30;;;;;;4998785;28;20286;-87
2022/01/05 01:58:41;;;;;;;;;;;5.10;93.30;;;;;;4985631;28;20291;-87
2022/01/05 02:01:07;;;;;;;;;;;5.10;93.30;;;;;;4998079;28;19928;-87
2022/01/05 02:03:34;;;;;;;;;;;5.10;93.20;;;;;;4982102;28;19913;-87
2022/01/05 02:06:01;;;;;;;;;;;5.10;93.30;;;;;;4995918;28;20114;-87
2022/01/05 02:08:28;;;;;;;;;;;5.10;93.30;;;;;;4993214;28;19917;-88
2022/01/05 02:10:55;;;;;;;;;;;5.10;93.20;;;;;;4984455;28;20390;-87
2022/01/05 02:13:22;;;;;;;;;;;5.10;93.10;;;;;;4985101;28;20249;-88
2022/01/05 02:15:48;;;;;;;;;;;5.10;93.10;;;;;;5009863;28;20121;-87
2022/01/05 02:21:05;;;;;;;;;;;5.10;93.10;;;;;;4978564;28;20113;-87
2022/01/05 02:23:33;;;;;;;;;;;5.00;93.10;;;;;;4982227;28;19914;-87
2022/01/05 02:26:00;;;;;;;;;;;5.00;93.00;;;;;;4998044;28;20028;-87
2022/01/05 02:28:27;;;;;;;;;;;5.00;93.00;;;;;;5008546;28;20232;-87
2022/01/05 02:30:54;;;;;;;;;;;5.00;93.00;;;;;;4980408;28;20393;-87
2022/01/05 02:33:21;;;;;;;;;;;4.90;93.00;;;;;;4996335;28;19925;-87
2022/01/05 02:35:48;;;;;;;;;;;4.90;92.90;;;;;;4977200;28;20008;-87
2022/01/05 02:38:22;;;;;;;;;;;4.90;93.00;;;;;;4979027;28;19914;-87
2022/01/05 02:40:50;;;;;;;;;;;4.90;93.00;;;;;;4967840;28;20325;-87
2022/01/05 02:43:16;;;;;;;;;;;4.90;93.00;;;;;;4994812;28;19910;-87
2022/01/05 02:45:43;;;;;;;;;;;4.90;93.00;;;;;;4984361;28;19920;-86
2022/01/05 02:48:10;;;;;;;;;;;4.90;92.90;;;;;;5001763;28;20381;-87
2022/01/05 02:50:37;;;;;;;;;;;4.80;92.90;;;;;;4965922;28;20252;-86
2022/01/05 02:53:04;;;;;;;;;;;4.80;92.90;;;;;;4995889;28;19945;-87
2022/01/05 02:55:31;;;;;;;;;;;4.80;92.90;;;;;;4976766;28;19921;-87
2022/01/05 02:57:58;;;;;;;;;;;4.80;92.90;;;;;;4971473;28;20116;-86
2022/01/05 03:00:25;;;;;;;;;;;4.80;92.80;;;;;;4978340;28;19922;-86
2022/01/05 03:02:52;;;;;;;;;;;4.70;92.90;;;;;;4989412;28;19927;-86
2022/01/05 03:05:19;;;;;;;;;;;4.70;92.80;;;;;;4982800;28;20004;-86
2022/01/05 03:07:46;;;;;;;;;;;4.70;92.80;;;;;;4987248;28;20410;-86
2022/01/05 03:10:16;;;;;;;;;;;4.70;92.90;;;;;;5012375;28;19929;-87
2022/01/05 03:12:44;;;;;;;;;;;4.70;92.90;;;;;;4995478;28;19934;-87
2022/01/05 03:15:11;;;;;;;;;;;4.70;93.00;;;;;;4979621;28;20387;-87
2022/01/05 03:17:38;;;;;;;;;;;4.70;92.90;;;;;;5004426;28;19920;-86
2022/01/05 03:20:06;;;;;;;;;;;4.60;92.90;;;;;;5000756;28;19913;-87
2022/01/05 03:22:33;;;;;;;;;;;4.60;92.90;;;;;;4982935;28;19920;-86
2022/01/05 03:25:00;;;;;;;;;;;4.60;92.80;;;;;;4982558;28;20125;-87
2022/01/05 03:27:27;;;;;;;;;;;4.60;92.90;;;;;;4998580;28;19923;-86
2022/01/05 03:29:54;;;;;;;;;;;4.60;92.80;;;;;;4971489;28;20543;-86
2022/01/05 03:32:21;;;;;;;;;;;4.60;92.80;;;;;;4978914;28;19924;-86
2022/01/05 03:34:50;;;;;;;;;;;4.50;92.80;;;;;;4992600;28;20212;-86
2022/01/05 03:37:17;;;;;;;;;;;4.50;92.80;;;;;;4996665;28;19928;-86
2022/01/05 03:39:44;;;;;;;;;;;4.50;92.90;;;;;;4983650;28;20141;-86
2022/01/05 03:42:11;;;;;;;;;;;4.50;92.90;;;;;;4993074;28;19940;-86
2022/01/05 03:44:37;;;;;;;;;;;4.60;93.10;;;;;;4988482;28;19914;-86
2022/01/05 03:47:04;;;;;;;;;;;4.50;93.10;;;;;;4984492;28;19932;-87
2022/01/05 03:49:31;;;;;;;;;;;4.50;93.00;;;;;;4977880;28;20358;-86
2022/01/05 03:51:58;;;;;;;;;;;4.60;92.80;;;;;;4953767;28;20053;-86
2022/01/05 03:54:25;;;;;;;;;;;4.50;92.70;;;;;;4981774;28;20372;-87
2022/01/05 03:56:52;;;;;;;;;;;4.50;92.80;;;;;;4987778;28;19921;-86
2022/01/05 03:59:18;;;;;;;;;;;4.50;92.90;;;;;;4987012;28;19910;-86
2022/01/05 04:01:45;;;;;;;;;;;4.50;92.80;;;;;;4988637;28;20657;-86
2022/01/05 04:04:12;;;;;;;;;;;4.50;92.70;;;;;;4981994;28;19910;-86
2022/01/05 04:06:39;;;;;;;;;;;4.50;92.80;;;;;;4978105;28;20001;-86
2022/01/05 04:09:06;;;;;;;;;;;4.50;92.80;;;;;;4992045;28;19918;-86
2022/01/05 04:11:32;;;;;;;;;;;4.50;92.90;;;;;;4998358;28;20698;-86
2022/01/05 04:13:59;;;;;;;;;;;4.40;92.90;;;;;;4990927;28;20014;-86
2022/01/05 04:16:26;;;;;;;;;;;4.40;92.90;;;;;;4992600;28;19936;-86
2022/01/05 04:18:53;;;;;;;;;;;4.40;93.00;;;;;;4989516;28;20113;-87
2022/01/05 04:21:20;;;;;;;;;;;4.40;93.10;;;;;;5013261;28;20281;-86
2022/01/05 04:23:46;;;;;;;;;;;4.40;93.20;;;;;;4980608;28;19929;-86
2022/01/05 04:26:13;;;;;;;;;;;4.40;93.10;;;;;;4977783;28;19928;-86
2022/01/05 04:28:40;;;;;;;;;;;4.40;93.00;;;;;;4989979;28;19924;-86
2022/01/05 04:31:07;;;;;;;;;;;4.40;93.10;;;;;;5004362;28;19922;-86
2022/01/05 04:33:34;;;;;;;;;;;4.40;93.00;;;;;;4984112;28;20279;-86
2022/01/05 04:36:01;;;;;;;;;;;4.40;93.00;;;;;;4995118;28;20585;-86
2022/01/05 04:38:28;;;;;;;;;;;4.30;92.70;;;;;;4993653;28;19924;-86
2022/01/05 04:40:55;;;;;;;;;;;4.30;92.80;;;;;;4982786;28;19914;-86
2022/01/05 04:43:21;;;;;;;;;;;4.30;92.80;;;;;;4993882;28;19914;-86
2022/01/05 04:45:49;;;;;;;;;;;4.30;92.80;;;;;;4984325;28;20141;-86
2022/01/05 04:48:16;;;;;;;;;;;4.30;92.90;;;;;;4993405;28;19922;-86
2022/01/05 04:50:43;;;;;;;;;;;4.30;92.80;;;;;;4986886;28;19929;-86
2022/01/05 04:53:11;;;;;;;;;;;4.30;92.80;;;;;;4988677;28;19993;-88
2022/01/05 04:55:42;;;;;;;;;;;4.30;92.80;;;;;;4988850;28;19917;-86
2022/01/05 04:58:09;;;;;;;;;;;4.30;92.90;;;;;;4991097;28;20516;-86
2022/01/05 05:00:35;;;;;;;;;;;4.30;92.90;;;;;;4977814;28;19924;-86
2022/01/05 05:03:03;;;;;;;;;;;4.30;92.80;;;;;;4975057;28;20222;-86
2022/01/05 05:05:30;;;;;;;;;;;4.30;92.80;;;;;;4984406;28;19921;-86
2022/01/05 05:08:00;;;;;;;;;;;4.30;92.90;;;;;;4982950;28;19921;-86
2022/01/05 05:10:27;;;;;;;;;;;4.30;92.90;;;;;;4985975;28;19940;-86
2022/01/05 05:12:54;;;;;;;;;;;4.30;92.90;;;;;;4997742;28;20367;-86
2022/01/05 05:15:20;;;;;;;;;;;4.30;92.80;;;;;;4996792;28;20015;-87
2022/01/05 05:17:47;;;;;;;;;;;4.30;92.60;;;;;;4989570;28;19920;-86
2022/01/05 05:20:14;;;;;;;;;;;4.30;92.80;;;;;;4974308;28;19922;-86
2022/01/05 05:22:41;;;;;;;;;;;4.30;92.90;;;;;;4997386;28;19920;-86
2022/01/05 05:25:08;;;;;;;;;;;4.30;93.00;;;;;;4985636;28;19913;-87
2022/01/05 05:27:35;;;;;;;;;;;4.30;93.10;;;;;;4989040;28;19937;-86
2022/01/05 05:30:02;;;;;;;;;;;4.30;93.20;;;;;;4987664;28;20301;-87
2022/01/05 05:32:29;;;;;;;;;;;4.30;93.10;;;;;;4980233;28;20173;-86
2022/01/05 05:34:56;;;;;;;;;;;4.30;93.10;;;;;;4996721;28;20355;-86
2022/01/05 05:37:23;;;;;;;;;;;4.30;93.10;;;;;;4972063;28;19918;-86
2022/01/05 05:39:50;;;;;;;;;;;4.30;93.20;;;;;;4984492;28;20087;-86
2022/01/05 05:42:17;;;;;;;;;;;4.40;93.30;;;;;;4994274;28;19916;-86
2022/01/05 05:44:44;;;;;;;;;;;4.40;93.40;;;;;;4987424;28;19939;-86
2022/01/05 05:47:12;;;;;;;;;;;4.40;93.40;;;;;;4988849;28;20151;-86
2022/01/05 05:49:39;;;;;;;;;;;4.50;93.50;;;;;;4983164;28;20129;-86
2022/01/05 05:52:06;;;;;;;;;;;4.40;93.50;;;;;;4979280;28;19917;-86
2022/01/05 05:54:33;;;;;;;;;;;4.40;93.50;;;;;;4981686;28;20289;-86
2022/01/05 05:57:00;;;;;;;;;;;4.50;93.50;;;;;;5007497;28;20262;-86
2022/01/05 05:59:27;;;;;;;;;;;4.50;93.50;;;;;;5002790;28;19921;-86
2022/01/05 06:01:53;;;;;;;;;;;4.50;93.40;;;;;;4981826;28;19917;-86
2022/01/05 06:04:20;;;;;;;;;;;4.60;93.40;;;;;;4989220;28;19913;-87
2022/01/05 06:06:47;;;;;;;;;;;4.60;93.60;;;;;;4986682;28;20125;-86
2022/01/05 06:09:14;;;;;;;;;;;4.60;93.60;;;;;;4980718;28;20303;-87
2022/01/05 06:11:41;;;;;;;;;;;4.60;93.70;;;;;;4977452;28;20118;-87
2022/01/05 06:14:08;;;;;;;;;;;4.70;93.80;;;;;;4982775;28;19914;-87
2022/01/05 06:16:34;;;;;;;;;;;4.80;93.70;;;;;;4988989;28;20511;-86
2022/01/05 06:19:01;;;;;;;;;;;4.80;93.80;;;;;;4982387;28;19920;-87
2022/01/05 06:21:28;;;;;;;;;;;4.90;93.90;;;;;;4969568;28;20380;-87
2022/01/05 06:23:55;;;;;;;;;;;4.90;93.80;;;;;;5015776;28;19931;-87
2022/01/05 06:26:22;;;;;;;;;;;4.90;93.80;;;;;;4971589;28;20375;-87
2022/01/05 06:28:50;;;;;;;;;;;4.90;93.70;;;;;;4996449;28;19928;-87
2022/01/05 06:31:17;;;;;;;;;;;5.00;94.00;;;;;;4982969;28;19914;-86
2022/01/05 06:33:44;;;;;;;;;;;5.00;93.60;;;;;;4994580;28;19928;-86
2022/01/05 06:36:11;;;;;;;;;;;5.00;93.70;;;;;;4992916;28;19926;-86
2022/01/05 06:38:38;;;;;;;;;;;5.00;93.60;;;;;;4986048;28;20305;-87
2022/01/05 06:41:04;;;;;;;;;;;5.10;93.60;;;;;;4979388;28;19927;-87
2022/01/05 06:43:31;;;;;;;;;;;5.10;93.60;;;;;;4968079;28;20108;-87
2022/01/05 06:45:58;;;;;;;;;;;5.10;93.60;;;;;;4991766;28;19914;-86
2022/01/05 06:48:25;;;;;;;;;;;5.20;93.40;;;;;;4986811;28;20425;-87
2022/01/05 06:50:52;;;;;;;;;;;5.20;93.50;;;;;;4989125;28;19914;-87
2022/01/05 06:53:19;;;;;;;;;;;5.20;93.50;;;;;;4986231;28;19917;-87
2022/01/05 06:55:46;;;;;;;;;;;5.30;93.60;;;;;;4983811;28;19921;-86
2022/01/05 06:58:12;;;;;;;;;;;5.30;93.50;;;;;;4982461;28;20047;-86
2022/01/05 07:00:39;;;;;;;;;;;5.30;93.40;;;;;;4991407;28;20448;-86
2022/01/05 07:03:06;;;;;;;;;;;5.30;93.40;;;;;;4996060;28;19918;-87
2022/01/05 07:05:33;;;;;;;;;;;5.30;93.40;;;;;;4987265;28;20382;-86
2022/01/05 07:08:00;;;;;;;;;;;5.30;93.10;;;;;;4990148;28;19921;-87
2022/01/05 07:10:27;;;;;;;;;;;5.30;93.00;;;;;;4978980;28;20036;-87
2022/01/05 07:12:53;;;;;;;;;;;5.30;93.00;;;;;;4968547;28;19914;-86
2022/01/05 07:15:20;;;;;;;;;;;5.30;93.20;;;;;;4985807;28;19917;-87
2022/01/05 07:17:47;;;;;;;;;;;5.30;93.30;;;;;;4993778;28;19920;-88
2022/01/05 07:20:14;;;;;;;;;;;5.30;93.10;;;;;;4991588;28;19913;-87
2022/01/05 07:22:41;;;;;;;;;;;5.40;93.30;;;;;;4989821;28;20229;-87
2022/01/05 07:25:08;;;;;;;;;;;5.40;93.30;;;;;;4985891;28;19917;-87
2022/01/05 07:27:35;;;;;;;;;;;5.40;93.40;;;;;;4983109;28;20000;-86
2022/01/05 07:30:04;;;;;;;;;;;5.40;93.50;;;;;;4966942;28;19918;-86
2022/01/05 07:32:30;;;;;;;;;;;5.40;93.50;;;;;;4983842;28;20098;-86
2022/01/05 07:34:57;;;;;;;;;;;5.40;93.50;;;;;;5008223;28;19925;-86
2022/01/05 07:37:24;;;;;;;;;;;5.40;93.60;;;;;;4968911;28;20016;-86
2022/01/05 07:39:51;;;;;;;;;;;5.40;93.50;;;;;;4987775;28;19917;-87
2022/01/05 07:42:18;;;;;;;;;;;5.50;93.50;;;;;;4979675;28;19917;-87
2022/01/05 07:44:45;;;;;;;;;;;5.50;93.60;;;;;;4983656;28;19913;-87
2022/01/05 07:47:11;;;;;;;;;;;5.50;93.40;;;;;;4989882;28;19920;-87
2022/01/05 07:49:39;;;;;;;;;;;5.50;93.60;;;;;;4998948;28;19925;-88
2022/01/05 07:52:06;;;;;;;;;;;5.50;93.60;;;;;;4995633;28;19913;-87
2022/01/05 07:54:32;;;;;;;;;;;5.60;93.60;;;;;;4980441;28;20096;-86
2022/01/05 07:56:59;;;;;;;;;;;5.60;93.70;;;;;;4998468;28;19940;-87
2022/01/05 07:59:26;;;;;;;;;;;5.60;93.70;;;;;;4968475;28;19921;-87
2022/01/05 08:01:53;;;;;;;;;;;5.60;93.80;;;;;;5015135;28;20277;-88
2022/01/05 08:04:20;;;;;;;;;;;5.60;93.90;;;;;;4985533;28;20281;-88
2022/01/05 08:06:47;;;;;;;;;;;5.70;93.90;;;;;;4998167;28;19917;-87
2022/01/05 08:09:13;;;;;;;;;;;5.70;94.00;;;;;;4984036;28;19914;-87
2022/01/05 08:11:40;;;;;;;;;;;5.70;93.90;;;;;;4982459;28;19946;-86
2022/01/05 08:14:07;;;;;;;;;;;5.70;93.90;;;;;;4968951;28;19914;-87
2022/01/05 08:16:34;;;;;;;;;;;5.70;93.70;;;;;;4982043;28;20441;-87
2022/01/05 08:19:01;;;;;;;;;;;5.80;93.80;;;;;;4987075;28;19919;-87
2022/01/05 08:21:28;;;;;;;;;;;5.70;93.80;;;;;;4980669;28;20577;-87
2022/01/05 08:23:55;;;;;;;;;;;5.80;93.80;;;;;;4986093;28;20138;-87
2022/01/05 08:26:22;;;;;;;;;;;5.80;93.70;;;;;;4979962;28;19920;-88
2022/01/05 08:28:49;;;;;;;;;;;5.80;93.80;;;;;;4995740;28;20367;-87
2022/01/05 08:31:16;;;;;;;;;;;5.90;93.70;;;;;;4963300;28;19926;-86
2022/01/05 08:33:43;;;;;;;;;;;5.90;93.30;;;;;;4991535;28;19913;-87
2022/01/05 08:36:10;;;;;;;;;;;5.90;93.70;;;;;;4997035;28;19922;-88
2022/01/05 08:38:37;;;;;;;;;;;5.90;93.70;;;;;;4994276;28;19936;-87
2022/01/05 08:41:04;;;;;;;;;;;6.00;93.80;;;;;;4990804;28;20001;-87
2022/01/05 08:43:32;;;;;;;;;;;6.00;93.90;;;;;;4967739;28;19940;-88
2022/01/05 08:45:59;;;;;;;;;;;6.10;93.60;;;;;;4985631;28;20291;-86
2022/01/05 08:48:26;;;;;;;;;;;6.10;93.70;;;;;;4974357;28;20142;-87
2022/01/05 08:50:53;;;;;;;;;;;6.10;93.80;;;;;;4999115;28;19924;-88
2022/01/05 08:53:21;;;;;;;;;;;6.20;93.80;;;;;;4987695;28;19917;-87
2022/01/05 08:55:48;;;;;;;;;;;6.20;93.80;;;;;;4990561;28;19910;-87
2022/01/05 08:58:16;;;;;;;;;;;6.20;93.80;;;;;;4980654;28;20133;-87
2022/01/05 09:00:43;;;;;;;;;;;6.20;93.70;;;;;;4977395;28;19921;-87
2022/01/05 09:03:12;;;;;;;;;;;6.30;94.00;;;;;;4983927;28;19922;-87
2022/01/05 09:05:39;;;;;;;;;;;6.30;94.00;;;;;;4969432;28;19910;-87
2022/01/05 09:08:06;;;;;;;;;;;6.40;94.00;;;;;;4995251;28;19920;-87
2022/01/05 09:10:34;;;;;;;;;;;6.40;94.00;;;;;;4988356;28;20161;-88
2022/01/05 09:13:01;;;;;;;;;;;6.40;94.00;;;;;;4962019;28;19924;-87
2022/01/05 09:15:29;;;;;;;;;;;6.50;94.00;;;;;;4982684;28;20549;-87
2022/01/05 09:17:57;;;;;;;;;;;6.50;93.80;;;;;;4979900;28;20047;-88
2022/01/05 09:20:24;;;;;;;;;;;6.50;93.80;;;;;;4989129;28;20079;-87
2022/01/05 09:22:50;;;;;;;;;;;6.50;93.90;;;;;;4982006;28;19920;-88
2022/01/05 09:25:18;;;;;;;;;;;6.60;93.90;;;;;;5000873;28;20293;-87
2022/01/05 09:27:46;;;;;;;;;;;6.60;94.00;;;;;;4976877;28;19918;-86
2022/01/05 09:30:13;;;;;;;;;;;6.60;93.60;;;;;;4980925;28;20313;-87
2022/01/05 09:32:40;;;;;;;;;;;6.70;93.80;;;;;;4985414;28;20148;-88
2022/01/05 09:35:09;;;;;;;;;;;6.70;94.00;;;;;;4987649;28;19922;-86
2022/01/05 09:37:40;;;;;;;;;;;6.70;94.00;;;;;;4982299;28;20006;-87
2022/01/05 09:42:53;;;;;;;;;;;6.70;94.00;;;;;;4982675;28;19923;-87
2022/01/05 09:45:21;;;;;;;;;;;6.80;94.00;;;;;;4986754;28;20289;-87
2022/01/05 09:48:08;;;;;;;;;;;6.80;94.20;;;;;;4974699;28;19924;-87
2022/01/05 09:50:36;;;;;;;;;;;6.80;94.00;;;;;;5000993;28;20030;-87
2022/01/05 09:53:04;;;;;;;;;;;6.80;93.80;;;;;;4989136;28;20272;-87
2022/01/05 09:55:31;;;;;;;;;;;6.90;94.20;;;;;;4981158;28;20397;-89
2022/01/05 09:57:58;;;;;;;;;;;6.90;94.10;;;;;;4994373;28;20282;-87
2022/01/05 10:00:25;;;;;;;;;;;6.90;93.90;;;;;;4977233;28;20346;-87
2022/01/05 10:02:52;;;;;;;;;;;6.90;93.80;;;;;;4998269;28;20294;-87
2022/01/05 10:05:19;;;;;;;;;;;6.90;93.60;;;;;;4993306;28;19922;-87
2022/01/05 10:07:46;;;;;;;;;;;7.00;93.70;;;;;;5006100;28;19920;-86
2022/01/05 10:10:13;;;;;;;;;;;7.00;93.60;;;;;;4993945;28;19913;-86
2022/01/05 10:12:40;;;;;;;;;;;7.10;93.90;;;;;;4980647;28;19940;-87
2022/01/05 10:15:07;;;;;;;;;;;7.10;93.70;;;;;;4989106;28;20232;-87
2022/01/05 10:17:36;;;;;;;;;;;7.10;93.90;;;;;;4998219;28;19992;-87
2022/01/05 10:20:07;;;;;;;;;;;7.10;94.10;;;;;;4977453;28;20383;-87
2022/01/05 10:22:35;;;;;;;;;;;7.20;94.10;;;;;;4981438;28;20095;-87
2022/01/05 10:25:16;;;;;;;;;;;7.20;94.10;;;;;;4988385;28;19922;-87
2022/01/05 10:27:53;;;;;;;;;;;7.30;94.10;;;;;;4996006;28;20096;-86
2022/01/05 10:30:20;;;;;;;;;;;7.30;94.30;;;;;;4973684;28;19914;-86
2022/01/05 10:32:53;;;;;;;;;;;7.40;94.40;;;;;;4989836;28;19922;-87
2022/01/05 10:35:22;;;;;;;;;;;7.40;94.60;;;;;;4987000;28;19922;-87
2022/01/05 10:38:18;;;;;;;;;;;7.60;94.80;;;;;;4964157;28;19920;-88
2022/01/05 10:40:45;;;;;;;;;;;7.80;95.10;;;;;;4961952;28;19920;-87
2022/01/05 10:43:13;;;;;;;;;;;8.00;94.90;;;;;;4970683;28;19918;-86
2022/01/05 10:45:43;;;;;;;;;;;8.00;94.60;;;;;;4987285;28;19923;-87
2022/01/05 10:48:20;;;;;;;;;;;8.10;94.60;;;;;;4976950;28;19952;-87
2022/01/05 10:50:48;;;;;;;;;;;8.10;94.30;;;;;;4977724;28;19924;-86
2022/01/05 10:53:18;;;;;;;;;;;8.10;94.20;;;;;;4985231;28;19922;-87
2022/01/05 10:55:45;;;;;;;;;;;8.10;94.10;;;;;;4995225;28;20417;-87
2022/01/05 10:58:19;;;;;;;;;;;8.10;94.00;;;;;;4984854;28;20022;-86
2022/01/05 11:00:50;;;;;;;;;;;8.10;94.00;;;;;;4980426;28;19918;-86
2022/01/05 11:03:26;;;;;;;;;;;8.10;94.00;;;;;;4970135;28;19913;-86
2022/01/05 11:06:02;;;;;;;;;;;8.10;93.90;;;;;;4989138;28;19913;-88
2022/01/05 11:08:49;;;;;;;;;;;8.00;93.80;;;;;;4995530;28;19917;-86
2022/01/05 11:11:37;;;;;;;;;;;8.10;94.00;;;;;;4992487;28;19926;-87
2022/01/05 11:14:05;;;;;;;;;;;8.10;94.10;;;;;;4992379;28;19921;-88
2022/01/05 11:16:32;;;;;;;;;;;8.10;94.00;;;;;;4987401;28;19918;-87
2022/01/05 11:19:24;;;;;;;;;;;8.10;94.20;;;;;;4991743;28;20125;-88
2022/01/05 11:21:55;;;;;;;;;;;8.10;93.90;;;;;;4973841;28;19913;-88
2022/01/05 11:24:23;;;;;;;;;;;8.10;93.90;;;;;;5008437;28;19920;-87
2022/01/05 11:26:50;;;;;;;;;;;8.10;94.00;;;;;;4986140;28;19917;-87
2022/01/05 11:29:17;;;;;;;;;;;8.20;94.30;;;;;;4985814;28;20267;-86
2022/01/05 11:31:45;;;;;;;;;;;8.20;94.10;;;;;;4987927;28;20270;-87
2022/01/05 11:34:12;;;;;;;;;;;8.30;94.30;;;;;;4979298;28;19914;-90
2022/01/05 11:36:39;;;;;;;;;;;8.30;94.40;;;;;;4990942;28;19918;-87
2022/01/05 11:39:06;;;;;;;;;;;8.30;94.50;;;;;;4985078;28;20197;-87
2022/01/05 11:41:37;;;;;;;;;;;8.40;94.60;;;;;;5000656;28;20374;-89
2022/01/05 11:44:04;;;;;;;;;;;8.40;94.20;;;;;;4987411;28;19922;-86
2022/01/05 11:46:31;;;;;;;;;;;8.40;94.40;;;;;;4989329;28;19940;-88
2022/01/05 11:48:58;;;;;;;;;;;8.40;94.50;;;;;;4979932;28;21213;-87
2022/01/05 11:51:29;;;;;;;;;;;8.40;94.50;;;;;;4997260;28;19914;-88
2022/01/05 11:54:12;;;;;;;;;;;8.40;93.80;;;;;;4986361;28;20554;-89
2022/01/05 11:56:40;;;;;;;;;;;8.40;94.00;;;;;;4995095;28;19917;-87
2022/01/05 11:59:17;;;;;;;;;;;8.40;94.10;;;;;;4993005;28;19918;-87
2022/01/05 12:01:56;;;;;;;;;;;8.50;94.20;;;;;;4983769;28;19917;-89
2022/01/05 12:04:23;;;;;;;;;;;8.50;94.30;;;;;;5008841;28;19917;-87
2022/01/05 12:06:50;;;;;;;;;;;8.40;93.80;;;;;;4978963;28;20059;-87
2022/01/05 12:09:25;;;;;;;;;;;8.50;94.20;;;;;;4983329;28;19917;-87
2022/01/05 12:11:52;;;;;;;;;;;8.50;94.30;;;;;;4987978;28;20136;-89
2022/01/05 12:14:22;;;;;;;;;;;8.50;93.70;;;;;;5004420;28;20378;-89
2022/01/05 12:19:34;;;;;;;;;;;8.50;94.10;;;;;;4984622;28;19910;-89
2022/01/05 12:22:03;;;;;;;;;;;8.50;94.10;;;;;;4969342;28;19914;-89
2022/01/05 12:24:49;;;;;;;;;;;8.50;94.10;;;;;;4985744;28;19922;-88
2022/01/05 12:27:16;;;;;;;;;;;8.50;94.10;;;;;;4983232;28;19918;-87
2022/01/05 12:29:43;;;;;;;;;;;8.50;94.20;;;;;;5009407;28;20412;-87
2022/01/05 12:32:10;;;;;;;;;;;8.50;94.20;;;;;;4993807;28;19918;-86
2022/01/05 12:34:57;;;;;;;;;;;8.50;94.10;;;;;;4972348;28;19924;-87
2022/01/05 12:37:42;;;;;;;;;;;8.50;94.10;;;;;;4969427;28;20235;-91
2022/01/05 12:40:21;;;;;;;;;;;8.50;93.90;;;;;;5001293;28;20406;-87
2022/01/05 12:42:48;;;;;;;;;;;8.50;93.90;;;;;;4999878;28;19944;-87
2022/01/05 12:45:34;;;;;;;;;;;8.40;93.90;;;;;;4999081;28;19959;-88
2022/01/05 12:48:01;;;;;;;;;;;8.50;93.80;;;;;;5000332;28;21028;-87
2022/01/05 12:50:31;;;;;;;;;;;8.60;94.10;;;;;;4983403;28;19920;-87
2022/01/05 12:52:58;;;;;;;;;;;8.60;93.50;;;;;;4992182;28;19917;-90
2022/01/05 12:55:25;;;;;;;;;;;8.70;93.30;;;;;;4983651;28;20267;-87
2022/01/05 12:57:53;;;;;;;;;;;8.80;93.90;;;;;;4974876;28;20367;-89
2022/01/05 13:00:20;;;;;;;;;;;9.00;93.20;;;;;;4978337;28;19972;-89
2022/01/05 13:02:47;;;;;;;;;;;9.10;93.30;;;;;;4978281;28;19918;-88
2022/01/05 13:05:26;;;;;;;;;;;9.20;93.30;;;;;;4988670;28;19920;-88
2022/01/05 13:07:52;;;;;;;;;;;9.50;93.30;;;;;;4990348;28;20011;-87
2022/01/05 13:10:21;;;;;;;;;;;9.70;93.30;;;;;;4988394;28;20295;-87
2022/01/05 13:12:48;;;;;;;;;;;9.90;93.50;;;;;;4993695;28;20354;-87
2022/01/05 13:15:17;;;;;;;;;;;10.30;93.40;;;;;;4990519;28;20020;-87
2022/01/05 13:17:44;;;;;;;;;;;10.50;91.80;;;;;;4988710;28;20310;-87
2022/01/05 13:20:14;;;;;;;;;;;10.80;93.30;;;;;;5002105;28;20255;-87
2022/01/05 13:22:45;;;;;;;;;;;11.00;93.00;;;;;;4977022;28;19917;-87
2022/01/05 13:25:22;;;;;;;;;;;11.30;93.40;;;;;;4974197;28;20359;-89
2022/01/05 13:27:49;;;;;;;;;;;11.40;90.70;;;;;;4974205;28;20306;-89
2022/01/05 13:30:20;;;;;;;;;;;11.50;91.90;;;;;;5006180;28;19927;-88
2022/01/05 13:32:49;;;;;;;;;;;11.60;91.90;;;;;;4996283;28;20193;-87
2022/01/05 13:35:18;;;;;;;;;;;11.80;92.10;;;;;;4992769;28;19921;-86
2022/01/05 13:37:49;;;;;;;;;;;12.00;91.90;;;;;;4977148;28;19929;-87
2022/01/05 13:40:17;;;;;;;;;;;12.20;92.20;;;;;;4974562;28;19928;-87
2022/01/05 13:42:44;;;;;;;;;;;12.40;91.00;;;;;;4962131;28;19913;-87
2022/01/05 13:45:13;;;;;;;;;;;12.50;90.10;;;;;;4992737;28;19928;-87
2022/01/05 13:47:40;;;;;;;;;;;12.50;91.10;;;;;;4985969;28;19940;-87
2022/01/05 13:50:12;;;;;;;;;;;12.50;91.20;;;;;;4990009;28;20365;-88
2022/01/05 13:52:39;;;;;;;;;;;12.40;89.90;;;;;;4982210;28;20211;-87
2022/01/05 13:55:07;;;;;;;;;;;12.30;90.50;;;;;;4977874;28;19914;-87
2022/01/05 13:57:36;;;;;;;;;;;12.10;88.30;;;;;;4987500;28;19921;-88
2022/01/05 14:00:06;;;;;;;;;;;11.90;88.60;;;;;;4982340;28;19918;-87
2022/01/05 14:02:33;;;;;;;;;;;11.70;90.10;;;;;;5005916;28;20125;-87
2022/01/05 14:05:01;;;;;;;;;;;11.50;88.70;;;;;;4992833;28;19921;-87
2022/01/05 14:07:28;;;;;;;;;;;11.30;90.40;;;;;;4986886;28;19917;-88
2022/01/05 14:10:09;;;;;;;;;;;11.10;89.10;;;;;;4978870;28;19941;-89
2022/01/05 14:12:41;;;;;;;;;;;10.90;89.80;;;;;;4989259;28;19914;-86
2022/01/05 14:15:09;;;;;;;;;;;10.70;89.40;;;;;;4973426;28;19914;-86
2022/01/05 14:17:36;;;;;;;;;;;10.60;89.10;;;;;;4989613;28;19940;-87
2022/01/05 14:20:12;;;;;;;;;;;10.50;88.60;;;;;;4987040;28;19913;-86
2022/01/05 14:22:40;;;;;;;;;;;10.30;89.10;;;;;;4982514;28;20382;-88
2022/01/05 14:25:07;;;;;;;;;;;10.20;89.90;;;;;;4979189;28;20238;-89
2022/01/05 14:27:35;;;;;;;;;;;10.20;90.60;;;;;;4991234;28;20558;-87
2022/01/05 14:30:03;;;;;;;;;;;10.10;91.00;;;;;;4983710;28;19924;-87
2022/01/05 14:32:32;;;;;;;;;;;10.10;91.30;;;;;;4983243;28;20144;-88
2022/01/05 14:35:00;;;;;;;;;;;10.10;91.10;;;;;;4985206;28;20594;-88
2022/01/05 14:37:27;;;;;;;;;;;10.10;90.10;;;;;;4972723;28;19920;-87
2022/01/05 14:39:56;;;;;;;;;;;10.00;89.70;;;;;;4981517;28;19914;-87
2022/01/05 14:42:23;;;;;;;;;;;10.00;90.70;;;;;;4988366;28;19913;-86